createdAt,value
2023-03-17T00:00:43.702Z,101361.20
2023-03-17T00:03:29.533Z,101359.45
2023-03-17T00:06:00.155Z,101360.42
2023-03-17T00:08:37.272Z,101361.72
2023-03-17T00:11:10.839Z,101365.29
2023-03-17T00:13:39.100Z,101361.94
2023-03-17T00:16:23.412Z,101361.88
2023-03-17T00:18:54.854Z,101365.61
2023-03-17T00:21:32.217Z,101362.91
2023-03-17T00:24:01.464Z,101364.74
2023-03-17T00:26:29.684Z,101366.95
2023-03-17T00:28:58.969Z,101367.40
2023-03-17T00:31:30.182Z,101370.23
2023-03-17T00:33:58.585Z,101372.21
2023-03-17T00:36:29.617Z,101371.52
2023-03-17T00:38:58.621Z,101373.16
2023-03-17T00:41:27.424Z,101374.46
2023-03-17T00:43:55.783Z,101383.67
2023-03-17T00:46:28.941Z,101384.25
2023-03-17T00:49:00.019Z,101386.31
2023-03-17T00:51:28.291Z,101386.02
2023-03-17T00:53:57.179Z,101391.13
2023-03-17T00:56:25.558Z,101392.23
2023-03-17T00:58:53.728Z,101392.88
2023-03-17T01:01:21.950Z,101396.33
2023-03-17T01:03:50.179Z,101396.39
2023-03-17T01:06:18.868Z,101398.27
2023-03-17T01:08:47.663Z,101397.09
2023-03-17T01:11:19.042Z,101396.52
2023-03-17T01:13:48.814Z,101398.59
2023-03-17T01:16:17.234Z,101402.46
2023-03-17T01:18:45.934Z,101405.46
2023-03-17T01:21:14.264Z,101412.46
2023-03-17T01:23:43.885Z,101415.29
2023-03-17T01:26:12.806Z,101418.65
2023-03-17T01:28:41.037Z,101427.85
2023-03-17T01:31:09.746Z,101423.92
2023-03-17T01:33:38.710Z,101428.38
2023-03-17T01:36:08.047Z,101426.94
2023-03-17T01:38:36.606Z,101433.93
2023-03-17T01:41:05.174Z,101436.11
2023-03-17T01:43:33.484Z,101439.96
2023-03-17T01:46:22.636Z,101447.30
2023-03-17T01:49:09.625Z,101448.81
2023-03-17T01:52:04.944Z,101451.38
2023-03-17T01:54:48.423Z,101451.75
2023-03-17T01:57:34.359Z,101458.38
2023-03-17T02:00:08.273Z,101458.29
2023-03-17T02:02:45.205Z,101459.01
2023-03-17T02:05:18.147Z,101461.05
2023-03-17T02:07:46.817Z,101461.39
2023-03-17T02:10:19.501Z,101465.11
2023-03-17T02:12:55.819Z,101469.13
2023-03-17T02:15:24.958Z,101471.53
2023-03-17T02:17:53.132Z,101469.73
2023-03-17T02:20:24.584Z,101473.37
2023-03-17T02:22:55.688Z,101473.62
2023-03-17T02:25:26.525Z,101478.25
2023-03-17T02:28:01.826Z,101481.48
2023-03-17T02:30:30.179Z,101484.24
2023-03-17T02:32:58.614Z,101487.74
2023-03-17T02:35:27.346Z,101493.80
2023-03-17T02:37:56.748Z,101499.50
2023-03-17T02:40:25.024Z,101498.88
2023-03-17T02:42:54.410Z,101501.67
2023-03-17T02:45:23.529Z,101502.59
2023-03-17T02:47:52.667Z,101508.79
2023-03-17T02:50:24.682Z,101509.63
2023-03-17T02:52:52.962Z,101511.58
2023-03-17T02:55:21.164Z,101513.80
2023-03-17T02:57:49.337Z,101517.75
2023-03-17T03:00:18.030Z,101517.09
2023-03-17T03:02:46.195Z,101518.00
2023-03-17T03:05:15.168Z,101518.02
2023-03-17T03:07:43.675Z,101521.88
2023-03-17T03:10:11.819Z,101526.76
2023-03-17T03:12:40.442Z,101528.64
2023-03-17T03:15:09.887Z,101528.81
2023-03-17T03:17:38.084Z,101529.57
2023-03-17T03:20:06.872Z,101530.36
2023-03-17T03:22:35.038Z,101530.33
2023-03-17T03:25:03.628Z,101530.95
2023-03-17T03:27:32.817Z,101529.58
2023-03-17T03:30:01.402Z,101531.50
2023-03-17T03:32:29.703Z,101531.84
2023-03-17T03:34:58.271Z,101533.30
2023-03-17T03:37:27.213Z,101532.78
2023-03-17T03:39:55.428Z,101533.62
2023-03-17T03:42:23.705Z,101539.39
2023-03-17T03:44:52.795Z,101538.59
2023-03-17T03:47:21.073Z,101536.73
2023-03-17T03:49:49.241Z,101538.52
2023-03-17T03:52:17.415Z,101541.65
2023-03-17T03:54:45.588Z,101543.15
2023-03-17T03:57:13.764Z,101547.88
2023-03-17T03:59:42.043Z,101551.52
2023-03-17T04:02:10.520Z,101549.00
2023-03-17T04:04:38.963Z,101556.11
2023-03-17T04:07:07.889Z,101557.74
2023-03-17T04:09:37.602Z,101562.38
2023-03-17T04:12:07.062Z,101566.16
2023-03-17T04:14:35.277Z,101570.48
2023-03-17T04:17:05.400Z,101570.82
2023-03-17T04:19:33.570Z,101573.45
2023-03-17T04:22:01.761Z,101572.67
2023-03-17T04:24:30.142Z,101573.78
2023-03-17T04:26:58.396Z,101576.41
2023-03-17T04:29:26.979Z,101575.77
2023-03-17T04:31:55.542Z,101577.85
2023-03-17T04:34:24.048Z,101583.04
2023-03-17T04:36:52.323Z,101584.67
2023-03-17T04:39:20.502Z,101585.98
2023-03-17T04:41:48.780Z,101587.61
2023-03-17T04:44:16.941Z,101590.38
2023-03-17T04:46:45.217Z,101597.34
2023-03-17T04:49:13.389Z,101599.64
2023-03-17T04:51:42.236Z,101603.13
2023-03-17T04:54:11.367Z,101597.28
2023-03-17T04:56:39.865Z,101596.32
2023-03-17T04:59:09.211Z,101597.39
2023-03-17T05:01:39.145Z,101593.66
2023-03-17T05:04:09.087Z,101589.02
2023-03-17T05:06:38.186Z,101590.14
2023-03-17T05:09:06.869Z,101590.13
2023-03-17T05:11:35.043Z,101590.19
2023-03-17T05:14:03.422Z,101586.85
2023-03-17T05:16:31.675Z,101591.05
2023-03-17T05:18:59.869Z,101593.70
2023-03-17T05:21:28.148Z,101596.48
2023-03-17T05:23:56.318Z,101596.40
2023-03-17T05:26:24.393Z,101597.19
2023-03-17T05:28:52.566Z,101602.69
2023-03-17T05:31:20.871Z,101597.45
2023-03-17T05:33:49.421Z,101600.56
2023-03-17T05:36:18.322Z,101602.49
2023-03-17T05:38:46.831Z,101602.20
2023-03-17T05:41:15.994Z,101603.95
2023-03-17T05:43:44.176Z,101607.81
2023-03-17T05:46:12.470Z,101612.16
2023-03-17T05:48:41.131Z,101617.19
2023-03-17T05:51:09.308Z,101620.45
2023-03-17T05:53:37.473Z,101627.08
2023-03-17T05:56:06.875Z,101628.80
2023-03-17T05:58:35.766Z,101624.95
2023-03-17T06:01:03.947Z,101631.73
2023-03-17T06:03:32.165Z,101629.82
2023-03-17T06:06:00.901Z,101632.80
2023-03-17T06:08:29.893Z,101629.69
2023-03-17T06:10:58.382Z,101627.80
2023-03-17T06:13:26.463Z,101626.35
2023-03-17T06:15:54.652Z,101637.16
2023-03-17T06:18:23.467Z,101634.85
2023-03-17T06:20:51.802Z,101637.70
2023-03-17T06:23:20.060Z,101634.52
2023-03-17T06:25:48.340Z,101639.95
2023-03-17T06:28:17.128Z,101635.77
2023-03-17T06:30:45.403Z,101644.46
2023-03-17T06:33:13.752Z,101643.47
2023-03-17T06:35:42.086Z,101649.81
2023-03-17T06:38:10.841Z,101645.68
2023-03-17T06:40:39.324Z,101645.92
2023-03-17T06:43:07.909Z,101646.83
2023-03-17T06:45:36.299Z,101642.05
2023-03-17T06:48:04.697Z,101638.98
2023-03-17T06:50:33.150Z,101643.37
2023-03-17T06:53:01.323Z,101644.77
2023-03-17T06:55:29.881Z,101642.28
2023-03-17T06:57:59.084Z,101643.33
2023-03-17T07:00:27.819Z,101645.34
2023-03-17T07:02:56.786Z,101645.13
2023-03-17T07:05:28.166Z,101648.77
2023-03-17T07:07:56.401Z,101643.04
2023-03-17T07:10:24.944Z,101639.48
2023-03-17T07:12:53.344Z,101640.44
2023-03-17T07:15:22.247Z,101643.95
2023-03-17T07:17:50.696Z,101639.31
2023-03-17T07:20:18.828Z,101640.86
2023-03-17T07:22:47.298Z,101642.12
2023-03-17T07:25:15.498Z,101639.89
2023-03-17T07:27:43.732Z,101636.18
2023-03-17T07:30:13.198Z,101633.26
2023-03-17T07:32:43.602Z,101635.05
2023-03-17T07:35:12.252Z,101633.91
2023-03-17T07:37:40.958Z,101631.52
2023-03-17T07:40:10.482Z,101635.13
2023-03-17T07:42:38.858Z,101630.52
2023-03-17T07:45:08.112Z,101629.73
2023-03-17T07:47:36.447Z,101626.27
2023-03-17T07:50:05.154Z,101629.89
2023-03-17T07:52:34.586Z,101627.30
2023-03-17T07:55:02.860Z,101623.80
2023-03-17T07:57:31.105Z,101621.77
2023-03-17T07:59:59.868Z,101625.08
2023-03-17T08:02:28.263Z,101631.27
2023-03-17T08:04:57.290Z,101628.45
2023-03-17T08:07:25.932Z,101619.41
2023-03-17T08:09:54.074Z,101628.71
2023-03-17T08:12:22.224Z,101634.14
2023-03-17T08:14:50.475Z,101635.58
2023-03-17T08:17:18.773Z,101635.66
2023-03-17T08:19:47.262Z,101637.55
2023-03-17T08:22:15.529Z,101632.36
2023-03-17T08:24:44.520Z,101631.98
2023-03-17T08:27:13.126Z,101633.05
2023-03-17T08:29:41.808Z,101633.02
2023-03-17T08:32:10.706Z,101628.95
2023-03-17T08:34:39.232Z,101627.48
2023-03-17T08:37:10.103Z,101622.34
2023-03-17T08:39:40.518Z,101620.18
2023-03-17T08:42:08.627Z,101620.91
2023-03-17T08:44:37.760Z,101619.08
2023-03-17T08:47:06.117Z,101616.92
2023-03-17T08:49:36.661Z,101609.34
2023-03-17T08:52:05.416Z,101613.34
2023-03-17T08:54:34.691Z,101613.94
2023-03-17T08:57:04.198Z,101607.21
2023-03-17T08:59:33.815Z,101609.34
2023-03-17T09:02:02.001Z,101607.09
2023-03-17T09:04:30.921Z,101607.48
2023-03-17T09:07:03.700Z,101599.13
2023-03-17T09:09:35.370Z,101599.79
2023-03-17T09:12:06.504Z,101594.40
2023-03-17T09:14:43.161Z,101591.00
2023-03-17T09:17:14.767Z,101593.33
2023-03-17T09:19:43.860Z,101591.59
2023-03-17T09:22:17.737Z,101590.11
2023-03-17T09:24:46.770Z,101595.75
2023-03-17T09:27:14.939Z,101594.00
2023-03-17T09:29:43.437Z,101587.73
2023-03-17T09:32:11.574Z,101581.31
2023-03-17T09:34:39.802Z,101582.17
2023-03-17T09:37:10.124Z,101583.81
2023-03-17T09:39:38.532Z,101577.25
2023-03-17T09:42:16.825Z,101581.67
2023-03-17T09:45:05.637Z,101580.54
2023-03-17T09:47:48.020Z,101583.29
2023-03-17T09:50:22.383Z,101580.75
2023-03-17T09:52:52.250Z,101587.73
2023-03-17T09:55:28.398Z,101582.84
2023-03-17T09:57:58.932Z,101581.90
2023-03-17T10:00:31.259Z,101575.27
2023-03-17T10:03:00.318Z,101581.41
2023-03-17T10:05:32.247Z,101580.17
2023-03-17T10:08:05.366Z,101579.23
2023-03-17T10:10:43.297Z,101576.73
2023-03-17T10:13:34.069Z,101571.73
2023-03-17T10:16:17.919Z,101569.91
2023-03-17T10:19:12.301Z,101565.85
2023-03-17T10:21:51.587Z,101566.97
2023-03-17T10:24:21.935Z,101559.90
2023-03-17T10:26:53.425Z,101552.18
2023-03-17T10:29:24.152Z,101551.44
2023-03-17T10:31:56.370Z,101544.52
2023-03-17T10:34:32.866Z,101550.34
2023-03-17T10:37:06.865Z,101545.04
2023-03-17T10:39:47.634Z,101545.15
2023-03-17T10:42:27.318Z,101542.81
2023-03-17T10:44:57.037Z,101533.80
2023-03-17T10:47:31.817Z,101534.36
2023-03-17T10:50:17.132Z,101537.45
2023-03-17T10:52:49.472Z,101531.77
2023-03-17T10:55:21.557Z,101530.75
2023-03-17T10:58:28.379Z,101523.13
2023-03-17T11:01:00.525Z,101517.31
2023-03-17T11:03:36.350Z,101520.97
2023-03-17T11:06:04.573Z,101512.21
2023-03-17T11:08:40.469Z,101499.94
2023-03-17T11:11:30.945Z,101509.36
2023-03-17T11:14:27.294Z,101510.74
2023-03-17T11:17:00.503Z,101504.48
2023-03-17T11:19:37.717Z,101502.05
2023-03-17T11:22:30.250Z,101491.55
2023-03-17T11:24:58.540Z,101492.77
2023-03-17T11:27:51.449Z,101497.05
2023-03-17T11:31:08.605Z,101490.94
2023-03-17T11:33:57.202Z,101489.46
2023-03-17T11:37:20.192Z,101485.16
2023-03-17T11:40:07.952Z,101494.98
2023-03-17T11:42:48.004Z,101495.30
2023-03-17T11:45:44.113Z,101487.42
2023-03-17T11:48:31.960Z,101484.73
2023-03-17T11:51:08.575Z,101490.14
2023-03-17T11:54:18.420Z,101487.33
2023-03-17T11:57:00.030Z,101484.61
2023-03-17T11:59:54.880Z,101481.27
2023-03-17T12:02:32.152Z,101483.84
2023-03-17T12:05:02.910Z,101475.83
2023-03-17T12:07:51.499Z,101479.95
2023-03-17T12:10:26.537Z,101482.78
2023-03-17T12:13:01.377Z,101482.59
2023-03-17T12:15:45.786Z,101482.46
2023-03-17T12:18:27.922Z,101488.49
2023-03-17T12:21:04.657Z,101489.37
2023-03-17T12:23:50.906Z,101485.50
2023-03-17T12:26:33.436Z,101482.02
2023-03-17T12:29:43.313Z,101478.69
2023-03-17T12:32:24.735Z,101485.96
2023-03-17T12:34:57.368Z,101487.05
2023-03-17T12:37:30.328Z,101483.37
2023-03-17T12:40:09.535Z,101478.27
2023-03-17T12:42:42.862Z,101479.85
2023-03-17T12:45:42.164Z,101473.11
2023-03-17T12:48:29.486Z,101477.73
2023-03-17T12:51:37.919Z,101470.27
2023-03-17T12:54:27.281Z,101472.71
2023-03-17T12:57:03.800Z,101470.64
2023-03-17T12:59:34.221Z,101472.98
2023-03-17T13:02:15.751Z,101476.28
2023-03-17T13:05:01.086Z,101480.75
2023-03-17T13:07:47.942Z,101478.77
2023-03-17T13:10:22.227Z,101478.56
2023-03-17T13:12:50.536Z,101474.01
2023-03-17T13:15:23.728Z,101470.77
2023-03-17T13:18:10.843Z,101472.02
2023-03-17T13:20:57.661Z,101474.80
2023-03-17T13:23:48.165Z,101484.51
2023-03-17T13:26:21.850Z,101478.20
2023-03-17T13:28:51.895Z,101474.41
2023-03-17T13:31:32.086Z,101474.66
2023-03-17T13:34:16.371Z,101473.67
2023-03-17T13:36:55.577Z,101475.39
2023-03-17T13:39:52.810Z,101479.52
2023-03-17T13:42:46.043Z,101477.41
2023-03-17T13:45:31.091Z,101486.08
2023-03-17T13:48:36.542Z,101486.58
2023-03-17T13:51:27.586Z,101482.86
2023-03-17T13:54:18.974Z,101485.05
2023-03-17T13:56:51.419Z,101482.46
2023-03-17T13:59:36.044Z,101481.59
2023-03-17T14:02:16.733Z,101475.35
2023-03-17T14:05:02.601Z,101469.54
2023-03-17T14:07:43.226Z,101474.03
2023-03-17T14:10:32.118Z,101476.34
2023-03-17T14:13:23.711Z,101480.66
2023-03-17T14:16:12.480Z,101479.75
2023-03-17T14:18:47.512Z,101481.42
2023-03-17T14:21:23.658Z,101479.09
2023-03-17T14:23:56.238Z,101482.99
2023-03-17T14:26:30.719Z,101480.52
2023-03-17T14:29:05.008Z,101474.19
2023-03-17T14:31:33.608Z,101476.82
2023-03-17T14:34:02.051Z,101480.95
2023-03-17T14:36:34.595Z,101480.17
2023-03-17T14:39:02.789Z,101477.90
2023-03-17T14:41:34.570Z,101480.52
2023-03-17T14:44:03.337Z,101480.77
2023-03-17T14:46:35.503Z,101479.08
2023-03-17T14:49:14.528Z,101484.28
2023-03-17T14:51:43.317Z,101490.55
2023-03-17T14:54:16.225Z,101491.05
2023-03-17T14:56:49.002Z,101490.79
2023-03-17T14:59:26.055Z,101493.87
2023-03-17T15:01:57.415Z,101500.59
2023-03-17T15:04:34.375Z,101500.69
2023-03-17T15:07:09.136Z,101497.00
2023-03-17T15:09:39.499Z,101498.46
2023-03-17T15:12:23.528Z,101493.02
2023-03-17T15:14:58.610Z,101494.73
2023-03-17T15:17:31.209Z,101500.73
2023-03-17T15:20:14.456Z,101500.02
2023-03-17T15:22:48.600Z,101501.05
2023-03-17T15:25:34.640Z,101500.79
2023-03-17T15:28:08.015Z,101502.73
2023-03-17T15:30:46.705Z,101504.54
2023-03-17T15:33:33.556Z,101507.84
2023-03-17T15:36:02.304Z,101507.22
2023-03-17T15:38:30.543Z,101512.11
2023-03-17T15:40:58.805Z,101513.16
2023-03-17T15:43:26.934Z,101515.50
2023-03-17T15:46:01.451Z,101519.46
2023-03-17T15:48:35.318Z,101519.71
2023-03-17T15:51:05.605Z,101521.83
2023-03-17T15:53:33.784Z,101526.92
2023-03-17T15:56:01.977Z,101525.66
2023-03-17T15:58:30.164Z,101526.55
2023-03-17T16:01:00.246Z,101528.88
2023-03-17T16:03:34.134Z,101527.55
2023-03-17T16:06:04.786Z,101531.04
2023-03-17T16:08:34.104Z,101530.73
2023-03-17T16:11:02.418Z,101532.36
2023-03-17T16:13:30.755Z,101536.52
2023-03-17T16:16:01.158Z,101536.52
2023-03-17T16:18:34.158Z,101541.52
2023-03-17T16:21:04.163Z,101546.88
2023-03-17T16:23:37.147Z,101546.07
2023-03-17T16:26:14.825Z,101546.86
2023-03-17T16:28:47.805Z,101553.14
2023-03-17T16:31:28.387Z,101556.86
2023-03-17T16:33:57.422Z,101566.08
2023-03-17T16:36:26.146Z,101568.88
2023-03-17T16:38:54.374Z,101574.70
2023-03-17T16:41:27.756Z,101579.53
2023-03-17T16:44:02.824Z,101581.59
2023-03-17T16:46:35.615Z,101580.89
2023-03-17T16:49:05.735Z,101582.11
2023-03-17T16:51:33.878Z,101587.25
2023-03-17T16:54:02.051Z,101589.34
2023-03-17T16:56:31.855Z,101590.07
2023-03-17T16:59:01.375Z,101589.17
2023-03-17T17:01:30.289Z,101590.84
2023-03-17T17:03:58.540Z,101594.56
2023-03-17T17:06:27.016Z,101593.05
2023-03-17T17:08:55.188Z,101593.63
2023-03-17T17:11:23.879Z,101594.18
2023-03-17T17:13:52.155Z,101599.58
2023-03-17T17:16:26.907Z,101600.72
2023-03-17T17:18:56.156Z,101604.82
2023-03-17T17:21:24.862Z,101605.42
2023-03-17T17:23:54.266Z,101607.09
2023-03-17T17:26:23.340Z,101607.16
2023-03-17T17:28:51.540Z,101610.26
2023-03-17T17:31:20.178Z,101613.12
2023-03-17T17:33:48.609Z,101612.04
2023-03-17T17:36:17.960Z,101615.23
2023-03-17T17:38:46.276Z,101617.14
2023-03-17T17:41:14.450Z,101617.17
2023-03-17T17:43:42.763Z,101620.11
2023-03-17T17:46:14.952Z,101622.29
2023-03-17T17:48:44.092Z,101625.45
2023-03-17T17:51:12.476Z,101625.23
2023-03-17T17:53:41.153Z,101626.13
2023-03-17T17:56:14.934Z,101623.73
2023-03-17T17:58:43.950Z,101617.84
2023-03-17T18:01:14.143Z,101619.61
2023-03-17T18:03:43.251Z,101621.14
2023-03-17T18:06:13.295Z,101621.33
2023-03-17T18:08:41.764Z,101622.69
2023-03-17T18:11:10.142Z,101622.97
2023-03-17T18:13:39.235Z,101623.10
2023-03-17T18:16:12.638Z,101628.48
2023-03-17T18:18:42.549Z,101626.20
2023-03-17T18:21:11.043Z,101624.06
2023-03-17T18:23:47.144Z,101625.39
2023-03-17T18:26:17.245Z,101626.55
2023-03-17T18:28:45.691Z,101624.90
2023-03-17T18:31:19.152Z,101624.96
2023-03-17T18:33:49.691Z,101624.86
2023-03-17T18:36:20.044Z,101628.84
2023-03-17T18:38:48.415Z,101628.85
2023-03-17T18:41:16.588Z,101631.83
2023-03-17T18:43:45.173Z,101631.86
2023-03-17T18:46:14.024Z,101634.73
2023-03-17T18:48:42.253Z,101634.38
2023-03-17T18:51:10.716Z,101637.89
2023-03-17T18:53:39.437Z,101637.73
2023-03-17T18:56:08.401Z,101638.61
2023-03-17T18:58:36.886Z,101642.05
2023-03-17T19:01:05.324Z,101643.16
2023-03-17T19:03:33.882Z,101638.37
2023-03-17T19:06:15.839Z,101641.20
2023-03-17T19:08:45.132Z,101645.96
2023-03-17T19:11:16.653Z,101647.11
2023-03-17T19:13:46.611Z,101647.95
2023-03-17T19:16:16.911Z,101654.08
2023-03-17T19:18:46.385Z,101651.42
2023-03-17T19:21:14.810Z,101653.45
2023-03-17T19:23:43.082Z,101653.10
2023-03-17T19:26:11.878Z,101652.46
2023-03-17T19:28:40.354Z,101650.59
2023-03-17T19:31:09.624Z,101645.33
2023-03-17T19:33:37.940Z,101643.51
2023-03-17T19:36:10.629Z,101641.63
2023-03-17T19:38:39.403Z,101645.48
2023-03-17T19:41:07.668Z,101642.52
2023-03-17T19:43:41.283Z,101642.64
2023-03-17T19:46:12.133Z,101641.92
2023-03-17T19:48:40.939Z,101639.91
2023-03-17T19:51:09.792Z,101641.27
2023-03-17T19:53:38.371Z,101642.54
2023-03-17T19:56:07.328Z,101640.96
2023-03-17T19:58:35.542Z,101642.04
2023-03-17T20:01:05.454Z,101640.79
2023-03-17T20:03:35.536Z,101638.59
2023-03-17T20:06:06.680Z,101644.98
2023-03-17T20:08:36.630Z,101646.58
2023-03-17T20:11:06.132Z,101639.75
2023-03-17T20:13:35.517Z,101645.35
2023-03-17T20:16:05.945Z,101644.92
2023-03-17T20:18:34.538Z,101642.71
2023-03-17T20:21:05.890Z,101645.36
2023-03-17T20:23:35.703Z,101644.23
2023-03-17T20:26:04.896Z,101646.11
2023-03-17T20:28:33.175Z,101644.67
2023-03-17T20:31:05.358Z,101640.74
2023-03-17T20:33:34.652Z,101641.88
2023-03-17T20:36:03.907Z,101642.49
2023-03-17T20:38:37.137Z,101645.75
2023-03-17T20:41:15.109Z,101638.99
2023-03-17T20:43:43.616Z,101644.44
2023-03-17T20:46:23.853Z,101643.41
2023-03-17T20:48:58.732Z,101643.59
2023-03-17T20:51:27.802Z,101640.91
2023-03-17T20:53:57.012Z,101642.75
2023-03-17T20:56:26.825Z,101643.79
2023-03-17T20:58:56.426Z,101642.13
2023-03-17T21:01:25.877Z,101641.23
2023-03-17T21:03:54.397Z,101640.80
2023-03-17T21:06:25.887Z,101639.33
2023-03-17T21:08:55.656Z,101637.77
2023-03-17T21:11:23.840Z,101641.13
2023-03-17T21:13:52.725Z,101640.46
2023-03-17T21:16:24.862Z,101638.44
2023-03-17T21:18:53.682Z,101635.90
2023-03-17T21:21:22.812Z,101639.45
2023-03-17T21:23:51.569Z,101640.55
2023-03-17T21:26:20.361Z,101643.56
2023-03-17T21:28:48.886Z,101645.45
2023-03-17T21:31:17.547Z,101644.69
2023-03-17T21:33:48.765Z,101645.38
2023-03-17T21:36:17.651Z,101639.06
2023-03-17T21:38:45.832Z,101635.97
2023-03-17T21:41:22.512Z,101635.42
2023-03-17T21:43:50.774Z,101629.56
2023-03-17T21:46:18.949Z,101624.34
2023-03-17T21:48:47.122Z,101625.52
2023-03-17T21:51:15.296Z,101625.98
2023-03-17T21:53:43.681Z,101622.38
2023-03-17T21:56:12.609Z,101626.02
2023-03-17T21:58:41.180Z,101628.60
2023-03-17T22:01:10.301Z,101631.02
2023-03-17T22:03:40.158Z,101631.12
2023-03-17T22:06:09.972Z,101629.78
2023-03-17T22:08:38.153Z,101625.39
2023-03-17T22:11:08.369Z,101629.95
2023-03-17T22:13:37.685Z,101631.77
2023-03-17T22:16:06.397Z,101640.10
2023-03-17T22:18:35.750Z,101642.43
2023-03-17T22:21:05.487Z,101644.20
2023-03-17T22:23:38.242Z,101641.25
2023-03-17T22:26:06.925Z,101643.59
2023-03-17T22:28:35.428Z,101646.65
2023-03-17T22:31:10.044Z,101642.59
2023-03-17T22:33:39.250Z,101641.68
2023-03-17T22:36:07.984Z,101642.38
2023-03-17T22:38:36.607Z,101644.02
2023-03-17T22:41:13.025Z,101638.39
2023-03-17T22:43:42.489Z,101639.44
2023-03-17T22:46:11.779Z,101641.23
2023-03-17T22:48:41.178Z,101648.32
2023-03-17T22:51:12.203Z,101647.35
2023-03-17T22:53:41.423Z,101651.02
2023-03-17T22:56:11.434Z,101651.47
2023-03-17T22:58:40.646Z,101657.32
2023-03-17T23:01:12.465Z,101654.44
2023-03-17T23:03:42.101Z,101656.48
2023-03-17T23:06:11.870Z,101659.08
2023-03-17T23:08:42.989Z,101655.84
2023-03-17T23:11:14.481Z,101652.31
2023-03-17T23:13:42.842Z,101649.55
2023-03-17T23:16:12.701Z,101651.39
2023-03-17T23:18:41.335Z,101646.05
2023-03-17T23:21:10.343Z,101651.72
2023-03-17T23:23:38.956Z,101654.00
2023-03-17T23:26:07.538Z,101650.91
2023-03-17T23:28:36.229Z,101653.41
2023-03-17T23:31:04.946Z,101650.92
2023-03-17T23:33:34.213Z,101650.36
2023-03-17T23:36:02.511Z,101649.40
2023-03-17T23:38:30.772Z,101652.67
2023-03-17T23:40:58.934Z,101647.89
2023-03-17T23:43:27.617Z,101649.79
2023-03-17T23:45:55.912Z,101651.05
2023-03-17T23:48:24.271Z,101650.98
2023-03-17T23:50:53.257Z,101646.65
2023-03-17T23:53:23.595Z,101651.05
2023-03-17T23:55:52.967Z,101647.14
2023-03-17T23:58:22.087Z,101646.81
